Latest Weather Observations for Mount Baw Baw

IDV60801

Issued at 3:02 pm EDT Saturday 28 March 2015 (issued every 30 minutes, with the page automatically refreshed every 10 minutes)

About weather observations | Map of weather stations | Latest weather observations for VIC | Other Formats
Station Details ID: 085291 Name: MOUNT BAW BAW Lat: -37.84 Lon: 146.27 Height: 1561.0 m
Data from the previous 72 hours. | See also: Recent months at Mount Baw Baw
Date/Time
EDT
Temp
°C
App
Temp
°C
Dew
Point
Rel
Hum
%
Delta-T
°C
Wind Press
QNH
hPa
Press
MSL
hPa
Rain
since 9 am
mm
Dir
 
Spd
km/h
Gust
km/h
Spd
kts
Gust
kts
28/03:00pm 10.7 8.3 7.0 78 1.9 NE 9 15 - 8 - - 0.0
28/02:30pm 11.3 9.9 8.9 85 1.3 S 6 9 - 5 - - 0.0
28/02:00pm 9.6 7.8 7.9 89 0.9 NNW 7 13 - 7 - - 0.0
28/01:30pm 11.2 10.6 10.3 94 0.5 SSE 4 7 - 4 - - 0.0
28/01:00pm 9.1 7.4 8.5 96 0.3 S 7 11 - 6 - - 0.0
28/12:30pm 9.0 8.0 8.9 99 0.1 SE 4 9 - 5 - - 0.0
28/12:00pm 8.8 7.2 8.7 99 0.1 SSE 7 11 - 6 - - 0.0
28/11:30am 7.8 5.9 7.7 99 0.1 SSE 7 15 - 8 - - 0.0
28/11:00am 6.8 5.7 6.7 99 0.1 SE 2 7 - 4 - - 0.0
28/10:30am 3.8 1.1 3.7 99 0.0 S 7 11 - 6 - - 0.0
28/10:00am 3.8 0.3 3.7 99 0.0 SSW 11 17 - 9 - - 0.0
28/09:30am 3.0 -1.4 2.9 99 0.0 SSW 15 20 - 11 - - 0.0
28/09:00am 1.9 -2.7 1.8 99 0.0 SSW 15 19 - 10 - - 16.4
28/08:30am 1.8 -2.8 1.7 99 0.0 SSW 15 19 - 10 - - 16.4
28/08:00am 1.9 -3.0 1.8 99 0.0 SSW 17 22 - 12 - - 16.4
28/07:30am 2.0 -2.9 1.9 99 0.0 SSW 17 24 - 13 - - 16.4
28/07:00am 2.2 -3.1 2.1 99 0.0 SSW 19 26 - 14 - - 16.4
28/06:30am 2.4 -2.8 2.3 99 0.0 SSW 19 28 - 15 - - 16.4
28/06:00am 2.1 -3.4 2.0 99 0.0 SSW 20 30 - 16 - - 16.4
28/05:30am 2.2 -4.0 2.1 99 0.0 SSW 24 33 - 18 - - 16.4
28/05:00am 2.1 -4.5 2.0 99 0.0 SSW 26 39 - 21 - - 16.2
28/04:30am 2.4 -4.5 2.3 99 0.0 SSW 28 43 - 23 - - 16.2
28/04:00am 2.7 -4.2 2.6 99 0.0 SSW 28 39 - 21 - - 15.8
28/03:30am 2.8 -3.7 2.7 99 0.0 SSW 26 39 - 21 - - 15.6
28/03:00am 2.9 -3.6 2.8 99 0.0 SSW 26 39 - 21 - - 15.4
28/02:30am 2.6 -3.5 2.5 99 0.0 SSW 24 35 - 19 - - 15.0
28/02:00am 2.7 -4.2 2.6 99 0.0 SSW 28 39 - 21 - - 15.0
28/01:30am 2.7 -4.2 2.6 99 0.0 SSW 28 41 - 22 - - 14.8
28/01:00am 2.5 -4.4 2.4 99 0.0 SSW 28 43 - 23 - - 14.8
28/12:30am 2.2 -4.4 2.1 99 0.0 SSW 26 33 - 18 - - 14.6
28/12:00am 2.1 -4.5 2.0 99 0.0 SW 26 39 - 21 - - 14.6
 
Date/Time
EDT
Temp
°C
App
Temp
°C
Dew
Point
Rel
Hum
%
Delta-T
°C
Wind Press
QNH
hPa
Press
MSL
hPa
Rain
since 9 am
mm
Dir
 
Spd
km/h
Gust
km/h
Spd
kts
Gust
kts
27/11:36pm 2.3 -4.7 2.2 99 0.0 SW 28 46 - 25 - - 14.6
27/11:30pm 2.5 -4.4 2.4 99 0.0 SW 28 39 - 21 - - 14.6
27/11:03pm 2.4 -4.5 2.3 99 0.0 SW 28 46 - 25 - - 14.4
27/11:00pm 2.4 -4.5 2.3 99 0.0 SW 28 44 - 24 - - 14.4
27/10:30pm 2.4 -4.9 2.3 99 0.0 SW 30 48 - 26 - - 14.4
27/10:01pm 2.9 -4.3 2.8 99 0.0 SW 30 48 - 26 - - 14.0
27/10:00pm 2.8 -4.8 2.7 99 0.0 SW 32 46 - 25 - - 13.8
27/09:30pm 2.7 -4.9 2.6 99 0.0 SW 32 50 - 27 - - 13.8
27/09:00pm 2.7 -4.6 2.6 99 0.0 SW 30 48 - 26 - - 12.8
27/08:41pm 2.7 -4.6 2.6 99 0.0 SW 30 48 - 26 - - 11.6
27/08:30pm 2.7 -4.6 2.6 99 0.0 SW 30 46 - 25 - - 11.4
27/08:00pm 2.7 -4.6 2.6 99 0.0 SW 30 50 - 27 - - 11.4
27/07:30pm 2.9 -4.7 2.8 99 0.0 SW 32 56 - 30 - - 10.2
27/07:00pm 3.1 -4.5 3.0 99 0.0 SW 32 50 - 27 - - 9.0
27/06:47pm 3.1 -3.7 3.0 99 0.0 SW 28 46 - 25 - - 8.6
27/06:30pm 3.1 -4.1 3.0 99 0.0 SW 30 44 - 24 - - 7.8
27/06:03pm 3.0 -3.8 2.9 99 0.0 SW 28 46 - 25 - - 7.6
27/06:00pm 3.0 -3.8 2.9 99 0.0 SW 28 39 - 21 - - 7.4
27/05:48pm 3.0 -4.2 2.9 99 0.0 SW 30 48 - 26 - - 7.2
27/05:30pm 3.0 -4.6 2.9 99 0.0 SW 32 46 - 25 - - 7.2
27/05:22pm 3.0 -3.8 2.9 99 0.0 SW 28 46 - 25 - - 7.2
27/05:00pm 3.2 -3.6 3.1 99 0.0 SW 28 44 - 24 - - 6.8
27/04:32pm 3.1 -3.7 3.0 99 0.0 SW 28 46 - 25 - - 6.4
27/04:30pm 3.2 -4.0 3.1 99 0.0 SW 30 46 - 25 - - 6.2
27/04:01pm 3.0 -4.2 2.9 99 0.0 SW 30 48 - 26 - - 6.0
27/04:00pm 2.9 -4.3 2.8 99 0.0 SW 30 43 - 23 - - 6.0
27/03:35pm 3.0 -4.6 2.9 99 0.0 SW 32 50 - 27 - - 5.8
27/03:30pm 3.0 -4.8 2.9 99 0.0 SW 33 50 - 27 - - 5.8
27/03:00pm 3.2 -4.4 3.1 99 0.0 SW 32 50 - 27 - - 5.6
27/02:30pm 3.1 -4.5 3.0 99 0.0 SW 32 52 - 28 - - 5.0
27/02:00pm 2.8 -5.4 2.7 99 0.0 SW 35 56 - 30 - - 4.6
27/01:32pm 3.0 -5.2 2.9 99 0.0 SW 35 54 - 29 - - 4.2
27/01:30pm 3.0 -5.2 2.9 99 0.0 SW 35 52 - 28 - - 4.2
27/01:01pm 3.1 -5.0 3.0 99 0.0 SW 35 54 - 29 - - 3.6
27/01:00pm 3.1 -5.4 3.0 99 0.0 SW 37 54 - 29 - - 3.6
27/12:30pm 3.0 -5.2 2.9 99 0.0 SW 35 59 - 32 - - 3.2
27/12:00pm 3.0 -5.2 2.9 99 0.0 SW 35 59 - 32 - - 3.2
27/11:30am 2.8 -5.4 2.7 99 0.0 SW 35 54 - 29 - - 2.8
27/11:00am 2.7 -5.5 2.6 99 0.0 SW 35 59 - 32 - - 2.4
27/10:30am 2.5 -5.8 2.4 99 0.0 SW 35 54 - 29 - - 1.8
27/10:00am 2.5 -5.8 2.4 99 0.0 SW 35 56 - 30 - - 1.2
27/09:30am 2.3 -5.6 2.2 99 0.0 WSW 33 52 - 28 - - 1.0
27/09:00am 2.4 -5.9 2.3 99 0.0 SW 35 69 - 37 - - 9.2
27/08:30am 2.4 -5.3 2.3 99 0.0 WSW 32 61 - 33 - - 8.4
27/08:00am 2.2 -5.5 2.1 99 0.0 SW 32 61 - 33 - - 7.0
27/07:30am 2.0 -5.8 1.9 99 0.0 SW 32 54 - 29 - - 6.0
27/07:00am 1.9 -5.9 1.8 99 0.0 WSW 32 54 - 29 - - 5.2
27/06:30am 2.2 -5.5 2.1 99 0.0 SW 32 50 - 27 - - 4.4
27/06:00am 2.1 -5.7 2.0 99 0.0 WSW 32 54 - 29 - - 4.0
27/05:30am 1.9 -5.5 1.8 99 0.0 WSW 30 48 - 26 - - 3.8
27/05:00am 2.2 -4.8 2.1 99 0.0 SW 28 48 - 26 - - 3.4
27/04:30am 2.4 -5.3 2.3 99 0.0 SW 32 56 - 30 - - 3.2
27/04:00am 2.3 -5.6 2.2 99 0.0 WSW 33 54 - 29 - - 3.2
27/03:30am 2.4 -5.3 2.3 99 0.0 WSW 32 56 - 30 - - 2.4
27/03:00am 2.3 -4.7 2.2 99 0.0 WSW 28 50 - 27 - - 1.8
27/02:30am 2.2 -5.2 2.1 99 0.0 WSW 30 52 - 28 - - 1.8
27/02:01am 2.3 -4.7 2.2 99 0.0 WSW 28 46 - 25 - - 1.6
27/02:00am 2.3 -4.3 2.2 99 0.0 WSW 26 46 - 25 - - 1.6
27/01:39am 2.4 -4.5 2.3 99 0.0 WSW 28 46 - 25 - - 1.6
27/01:30am 2.3 -4.7 2.2 99 0.0 WSW 28 43 - 23 - - 1.4
27/01:00am 2.3 -5.0 2.2 99 0.0 WSW 30 56 - 30 - - 1.4
27/12:30am 2.1 -5.7 2.0 99 0.0 WSW 32 50 - 27 - - 1.2
27/12:00am 1.8 -5.6 1.7 99 0.0 WSW 30 50 - 27 - - 1.0
 
Date/Time
EDT
Temp
°C
App
Temp
°C
Dew
Point
Rel
Hum
%
Delta-T
°C
Wind Press
QNH
hPa
Press
MSL
hPa
Rain
since 9 am
mm
Dir
 
Spd
km/h
Gust
km/h
Spd
kts
Gust
kts
26/11:30pm 1.7 -5.4 1.6 99 0.0 WSW 28 59 - 32 - - 1.0
26/11:00pm 1.6 -5.5 1.5 99 0.0 WSW 28 54 - 29 - - 1.0
26/10:56pm 1.6 -5.5 1.5 99 0.0 WSW 28 54 - 29 - - 1.0
26/10:30pm 1.5 -4.8 1.4 99 0.0 WSW 24 52 - 28 - - 1.0
26/10:00pm 1.3 -5.1 1.2 99 0.0 WSW 24 46 - 25 - - 1.0
26/09:30pm 1.0 -5.4 0.9 99 0.0 W 24 48 - 26 - - 1.0
26/09:00pm 0.6 -4.9 0.5 99 0.0 WNW 19 35 - 19 - - 1.0
26/08:30pm 0.0 -5.6 -0.1 99 0.0 NW 19 37 - 20 - - 0.8
26/08:00pm 0.2 -5.0 0.1 99 0.0 NW 17 37 - 20 - - 0.4
26/07:30pm 0.8 -4.8 0.1 95 0.3 W 19 39 - 21 - - 0.0
26/07:00pm 1.3 -4.0 -0.5 88 0.7 NW 17 33 - 18 - - 0.0
26/06:30pm 2.4 -3.1 -1.9 73 1.7 WNW 17 35 - 19 - - 0.0
26/06:00pm 3.0 -2.6 -2.5 67 2.1 NW 17 39 - 21 - - 0.0
26/05:30pm 3.4 -2.1 -2.3 66 2.2 NNW 17 30 - 16 - - 0.0
26/05:00pm 3.9 -1.2 -1.9 66 2.3 NNW 15 30 - 16 - - 0.0
26/04:30pm 4.5 -0.9 -1.7 64 2.5 W 17 35 - 19 - - 0.0
26/04:00pm 4.7 -1.1 -1.5 64 2.5 W 19 39 - 21 - - 0.0
26/03:30pm 3.2 -2.2 -1.5 71 1.9 W 17 30 - 16 - - 0.0
26/03:00pm 3.5 -2.3 -1.4 70 2.0 W 19 37 - 20 - - 0.0
26/02:30pm 4.6 -0.6 -0.2 71 2.0 W 17 32 - 17 - - 0.0
26/02:00pm 2.9 -2.4 -0.5 78 1.4 W 17 32 - 17 - - 0.0
26/01:30pm 2.7 -3.1 -1.6 73 1.7 W 19 41 - 22 - - 0.0
26/01:00pm 2.6 -2.8 -1.0 77 1.4 W 17 35 - 19 - - 0.0
26/12:30pm 1.7 -3.9 -0.2 87 0.8 WSW 19 30 - 16 - - 0.0
26/12:00pm 0.9 -3.7 -1.0 87 0.7 W 13 24 - 13 - - 0.0
26/11:30am 1.1 -3.7 0.5 96 0.2 WNW 15 32 - 17 - - 0.0
26/11:00am 0.0 -5.2 -0.1 99 0.0 WSW 17 28 - 15 - - 0.0
26/10:30am -0.4 -6.1 -0.5 99 0.0 WSW 19 30 - 16 - - 0.0
26/10:00am -0.7 -5.3 -0.8 99 0.0 WSW 13 33 - 18 - - 0.0
26/09:30am -0.9 -3.0 -1.0 99 0.0 CALM 0 0 - 0 - - 0.0
26/09:00am -0.9 -3.0 -1.0 99 0.0 CALM 0 0 - 0 - - 1.0
26/08:30am -0.5 -2.6 -0.6 99 0.0 CALM 0 0 - 0 - - 1.0
26/08:00am -0.5 -5.8 -0.6 99 0.0 WSW 17 32 - 17 - - 0.8
26/07:30am 0.4 -4.8 0.3 99 0.0 WSW 17 28 - 15 - - 0.6
26/07:00am 0.6 -3.4 0.5 99 0.0 WSW 11 24 - 13 - - 0.4
26/06:30am 1.6 -2.7 1.0 96 0.3 NNW 13 24 - 13 - - 0.0
26/06:00am 2.6 -1.9 0.0 83 1.1 NNW 13 26 - 14 - - 0.0
26/05:30am 2.8 -2.4 -0.1 81 1.2 NNW 17 28 - 15 - - 0.0
26/05:00am 2.7 -2.2 -0.4 80 1.3 NNW 15 26 - 14 - - 0.0
26/04:30am 2.8 -1.7 -0.3 80 1.3 NW 13 28 - 15 - - 0.0
26/04:00am 2.9 -1.6 -0.2 80 1.3 W 13 24 - 13 - - 0.0
26/03:30am 3.0 -1.5 -0.5 78 1.4 WNW 13 24 - 13 - - 0.0
26/03:00am 3.0 -2.3 -0.5 78 1.4 WNW 17 33 - 18 - - 0.0
26/02:30am 2.8 -2.1 -0.6 78 1.4 NW 15 35 - 19 - - 0.0
26/02:00am 3.0 -1.9 -0.6 77 1.5 NW 15 30 - 16 - - 0.0
26/01:30am 3.2 -1.3 -0.3 78 1.4 WNW 13 26 - 14 - - 0.0
26/01:00am 3.6 -0.8 0.3 79 1.4 NW 13 24 - 13 - - 0.0
26/12:30am 3.9 -0.4 1.3 83 1.1 WNW 13 24 - 13 - - 0.0
26/12:00am 4.6 0.9 2.5 86 0.9 WSW 11 20 - 11 - - 0.0
 
Date/Time
EDT
Temp
°C
App
Temp
°C
Dew
Point
Rel
Hum
%
Delta-T
°C
Wind Press
QNH
hPa
Press
MSL
hPa
Rain
since 9 am
mm
Dir
 
Spd
km/h
Gust
km/h
Spd
kts
Gust
kts
25/11:30pm 5.2 0.8 2.9 85 1.0 WSW 15 24 - 13 - - 0.0
25/11:00pm 5.5 1.6 3.2 85 1.1 NW 13 28 - 15 - - 0.0
25/10:30pm 5.7 1.4 3.4 85 1.1 NNW 15 26 - 14 - - 0.0
25/10:00pm 6.1 2.2 3.6 84 1.2 NNW 13 26 - 14 - - 0.0
25/09:30pm 6.3 3.1 3.3 81 1.4 N 9 17 - 9 - - 0.0
25/09:00pm 6.6 3.0 3.2 79 1.6 N 11 24 - 13 - - 0.0
25/08:30pm 6.8 2.9 3.2 78 1.7 N 13 26 - 14 - - 0.0
25/08:00pm 6.7 2.7 3.1 78 1.7 N 13 33 - 18 - - 0.0
25/07:30pm 7.1 3.2 3.3 77 1.8 N 13 24 - 13 - - 0.0
25/07:00pm 7.4 3.6 4.0 79 1.6 N 13 32 - 17 - - 0.0
25/06:30pm 7.8 3.6 3.8 76 1.9 N 15 30 - 16 - - 0.0
25/06:00pm 8.0 4.3 4.2 77 1.8 N 13 28 - 15 - - 0.0
25/05:30pm 8.5 5.6 4.5 76 1.9 N 9 17 - 9 - - 0.0
25/05:00pm 8.4 5.2 5.0 79 1.7 N 11 26 - 14 - - 0.0
25/04:30pm 8.7 6.1 6.2 84 1.3 N 9 20 - 11 - - 0.0
25/04:00pm 8.3 5.2 5.4 82 1.4 N 11 20 - 11 - - 0.0
25/03:30pm 8.2 5.0 5.3 82 1.4 NNW 11 22 - 12 - - 0.0

Other Formats:

Comma delimited format used in spreadsheet applications
http://www.bom.gov.au/fwo/IDV60801/IDV60801.95901.axf

JavaScript Object Notation format (JSON) in row-major order
http://www.bom.gov.au/fwo/IDV60801/IDV60801.95901.json